Bookmark and Share
Track history (hours):
 

Sagapo

Last reported at 2013-Aug-27 15:33 UTC. Time now 2014-Apr-20 00:48 UTC.
Position N 36°40' E 026°57'.
Warning: this ship's position is months out of date.

Length 16 m; draft 2.5 m.

Type: Sailing vessel. MMSI: 211464750.

NotesDate/timePositionNaut miles runAvg speedWind from/ knotsBaromVisibWave heightAir tempDewpointWater temp
2013-Aug-27 15:33N 36°40' E 026°57'6 5.9
2013-Aug-27 14:33N 36°46' E 026°55'9 8.6
2013-Aug-27 13:32N 36°54' E 026°59'2 0.6
2013-Aug-27 10:18N 36°56' E 026°58'6 7.4
2013-Aug-27 09:32N 36°56' E 026°51'8 7.6
2013-Aug-27 08:33N 36°58' E 026°42'8 7.7
2013-Aug-27 07:32N 36°59' E 026°32'3 0.2
2013-Aug-26 18:32N 37°00' E 026°28'0 0.0
2013-Aug-26 16:28N 37°00' E 026°28'0 0.0
2013-Aug-26 15:26N 37°00' E 026°28'0 0.0
2013-Aug-26 14:25N 37°00' E 026°28'1 1.2
2013-Aug-26 13:33N 36°59' E 026°27'7 6.4
2013-Aug-26 12:28N 36°59' E 026°18'5 5.1
2013-Aug-26 11:33N 36°58' E 026°13'8 7.3
2013-Aug-26 10:31N 36°57' E 026°04'6 6.7
2013-Aug-26 09:33N 36°54' E 025°56'1 0.9
2013-Aug-26 08:16N 36°53' E 025°55'0 0.0
2013-Aug-26 07:26N 36°53' E 025°55'4 5.1
2013-Aug-26 06:33N 36°50' E 025°51'0 0.0
2013-Aug-24 13:28N 36°50' E 025°51'6 6.8
2013-Aug-24 12:33N 36°51' E 025°44'9 8.5
2013-Aug-24 11:33N 36°53' E 025°34'7 6.6
2013-Aug-24 10:33N 36°55' E 025°26'6 5.7
2013-Aug-24 09:33N 36°59' E 025°21'5 4.7
2013-Aug-24 08:32N 37°04' E 025°21'0 0.0
2013-Aug-24 07:32N 37°04' E 025°21'0 0.0
2013-Aug-23 18:31N 37°04' E 025°21'0 0.0
2013-Aug-23 17:31N 37°04' E 025°21'0 0.0
2013-Aug-23 16:31N 37°04' E 025°21'0 0.0
2013-Aug-23 15:25N 37°04' E 025°21'0 0.0
2013-Aug-23 14:25N 37°04' E 025°21'0 0.0
2013-Aug-23 13:31N 37°04' E 025°21'0 0.0
2013-Aug-23 12:25N 37°04' E 025°21'0 0.0
2013-Aug-23 11:31N 37°04' E 025°21'0 0.0
2013-Aug-23 10:27N 37°04' E 025°21'3 3.2
2013-Aug-23 09:33N 37°07' E 025°20'6 6.5
2013-Aug-23 08:34N 37°13' E 025°18'7 7.0
2013-Aug-23 07:33N 37°20' E 025°16'6 5.8
2013-Aug-23 06:32N 37°25' E 025°19'0 0.0
2013-Aug-22 15:25N 37°25' E 025°19'0 0.0
2013-Aug-22 14:31N 37°25' E 025°19'0 0.0
2013-Aug-22 13:25N 37°25' E 025°19'0 0.0
2013-Aug-22 12:19N 37°25' E 025°19'0 0.1
2013-Aug-22 11:33N 37°25' E 025°19'5 4.9
2013-Aug-22 10:33N 37°26' E 025°26'9 9.1
2013-Aug-22 09:33N 37°33' E 025°32'9 9.2
2013-Aug-22 08:34N 37°42' E 025°37'8 8.4
2013-Aug-22 07:33N 37°49' E 025°41'7 7.4
2013-Aug-22 06:33N 37°56' E 025°45'  

Dump ship's entire track history

sailing weather and tide predictions

Sagapo — DGTR2 — position and weather